sensor_id;sensor_type;location;lat;lon;timestamp;temperature;humidity
23156;DHT22;11746;50.876;4.246;2024-02-14T00:02:28;9.20;99.90
23156;DHT22;11746;50.876;4.246;2024-02-14T00:04:54;9.20;99.90
23156;DHT22;11746;50.876;4.246;2024-02-14T00:07:20;9.30;99.90
23156;DHT22;11746;50.876;4.246;2024-02-14T00:09:47;9.30;99.90
23156;DHT22;11746;50.876;4.246;2024-02-14T00:12:20;9.30;99.90
23156;DHT22;11746;50.876;4.246;2024-02-14T00:14:46;9.40;99.90
23156;DHT22;11746;50.876;4.246;2024-02-14T00:17:11;9.30;99.90
23156;DHT22;11746;50.876;4.246;2024-02-14T00:19:38;9.30;99.90
23156;DHT22;11746;50.876;4.246;2024-02-14T00:22:03;9.30;99.90
23156;DHT22;11746;50.876;4.246;2024-02-14T00:24:29;9.30;99.90
23156;DHT22;11746;50.876;4.246;2024-02-14T00:26:57;9.30;99.90
23156;DHT22;11746;50.876;4.246;2024-02-14T00:29:23;9.30;99.90
23156;DHT22;11746;50.876;4.246;2024-02-14T00:31:50;9.30;99.90
23156;DHT22;11746;50.876;4.246;2024-02-14T00:34:15;9.30;99.90
23156;DHT22;11746;50.876;4.246;2024-02-14T00:36:41;9.30;99.90
23156;DHT22;11746;50.876;4.246;2024-02-14T00:39:07;9.30;99.90
23156;DHT22;11746;50.876;4.246;2024-02-14T00:41:35;9.30;99.90
23156;DHT22;11746;50.876;4.246;2024-02-14T00:44:01;9.30;99.90
23156;DHT22;11746;50.876;4.246;2024-02-14T00:46:28;9.30;99.90
23156;DHT22;11746;50.876;4.246;2024-02-14T00:48:54;9.30;99.90
23156;DHT22;11746;50.876;4.246;2024-02-14T00:51:21;9.30;99.90
23156;DHT22;11746;50.876;4.246;2024-02-14T00:53:49;9.30;99.90
23156;DHT22;11746;50.876;4.246;2024-02-14T00:56:14;9.30;99.90
23156;DHT22;11746;50.876;4.246;2024-02-14T00:58:40;9.30;99.90
23156;DHT22;11746;50.876;4.246;2024-02-14T01:01:06;9.50;99.90
23156;DHT22;11746;50.876;4.246;2024-02-14T01:03:38;9.50;99.90
23156;DHT22;11746;50.876;4.246;2024-02-14T01:06:04;9.50;99.90
23156;DHT22;11746;50.876;4.246;2024-02-14T01:08:32;9.40;99.90
23156;DHT22;11746;50.876;4.246;2024-02-14T01:10:59;9.40;99.90
23156;DHT22;11746;50.876;4.246;2024-02-14T01:13:24;9.40;99.90
23156;DHT22;11746;50.876;4.246;2024-02-14T01:15:50;9.40;99.90
23156;DHT22;11746;50.876;4.246;2024-02-14T01:18:15;9.40;99.90
23156;DHT22;11746;50.876;4.246;2024-02-14T01:20:41;9.40;99.90
23156;DHT22;11746;50.876;4.246;2024-02-14T01:23:07;9.50;99.90
23156;DHT22;11746;50.876;4.246;2024-02-14T01:25:32;9.40;99.90
23156;DHT22;11746;50.876;4.246;2024-02-14T01:28:01;9.40;99.90
23156;DHT22;11746;50.876;4.246;2024-02-14T01:30:29;9.40;99.90
23156;DHT22;11746;50.876;4.246;2024-02-14T01:32:59;9.40;99.90
23156;DHT22;11746;50.876;4.246;2024-02-14T01:35:32;9.40;99.90
23156;DHT22;11746;50.876;4.246;2024-02-14T01:37:58;9.40;99.90
23156;DHT22;11746;50.876;4.246;2024-02-14T01:40:24;9.40;99.90
23156;DHT22;11746;50.876;4.246;2024-02-14T01:42:49;9.50;99.90
23156;DHT22;11746;50.876;4.246;2024-02-14T01:45:17;9.40;99.90
23156;DHT22;11746;50.876;4.246;2024-02-14T01:47:44;9.40;99.90
23156;DHT22;11746;50.876;4.246;2024-02-14T01:50:12;9.40;99.90
23156;DHT22;11746;50.876;4.246;2024-02-14T01:52:39;9.50;99.90
23156;DHT22;11746;50.876;4.246;2024-02-14T01:55:07;9.50;99.90
23156;DHT22;11746;50.876;4.246;2024-02-14T01:57:36;9.50;99.90
23156;DHT22;11746;50.876;4.246;2024-02-14T02:00:04;9.50;99.90
23156;DHT22;11746;50.876;4.246;2024-02-14T02:02:34;9.50;99.90
23156;DHT22;11746;50.876;4.246;2024-02-14T02:05:03;9.50;99.90
23156;DHT22;11746;50.876;4.246;2024-02-14T02:07:32;9.40;99.90
23156;DHT22;11746;50.876;4.246;2024-02-14T02:10:00;9.40;99.90
23156;DHT22;11746;50.876;4.246;2024-02-14T02:12:27;9.50;99.90
23156;DHT22;11746;50.876;4.246;2024-02-14T02:14:53;9.60;99.90
23156;DHT22;11746;50.876;4.246;2024-02-14T02:17:21;9.50;99.90
23156;DHT22;11746;50.876;4.246;2024-02-14T02:19:47;9.60;99.90
23156;DHT22;11746;50.876;4.246;2024-02-14T02:22:15;9.60;99.90
23156;DHT22;11746;50.876;4.246;2024-02-14T02:24:40;9.50;99.90
23156;DHT22;11746;50.876;4.246;2024-02-14T02:27:06;9.60;99.90
23156;DHT22;11746;50.876;4.246;2024-02-14T02:29:31;9.60;99.90
23156;DHT22;11746;50.876;4.246;2024-02-14T02:31:59;9.70;99.90
23156;DHT22;11746;50.876;4.246;2024-02-14T02:34:27;9.70;99.90
23156;DHT22;11746;50.876;4.246;2024-02-14T02:36:53;9.70;99.90
23156;DHT22;11746;50.876;4.246;2024-02-14T02:39:24;9.70;99.90
23156;DHT22;11746;50.876;4.246;2024-02-14T02:41:50;9.70;99.90
23156;DHT22;11746;50.876;4.246;2024-02-14T02:44:15;9.70;99.90
23156;DHT22;11746;50.876;4.246;2024-02-14T02:46:43;9.70;99.90
23156;DHT22;11746;50.876;4.246;2024-02-14T02:49:11;9.80;99.90
23156;DHT22;11746;50.876;4.246;2024-02-14T02:51:39;9.70;99.90
23156;DHT22;11746;50.876;4.246;2024-02-14T02:54:04;9.80;99.90
23156;DHT22;11746;50.876;4.246;2024-02-14T02:56:30;9.70;99.90
23156;DHT22;11746;50.876;4.246;2024-02-14T02:59:01;9.80;99.90
23156;DHT22;11746;50.876;4.246;2024-02-14T03:01:40;9.80;99.90
23156;DHT22;11746;50.876;4.246;2024-02-14T03:04:06;9.80;99.90
23156;DHT22;11746;50.876;4.246;2024-02-14T03:06:33;9.80;99.90
23156;DHT22;11746;50.876;4.246;2024-02-14T03:09:02;9.80;99.90
23156;DHT22;11746;50.876;4.246;2024-02-14T03:11:27;9.90;99.90
23156;DHT22;11746;50.876;4.246;2024-02-14T03:13:56;9.90;99.90
23156;DHT22;11746;50.876;4.246;2024-02-14T03:16:21;9.90;99.90
23156;DHT22;11746;50.876;4.246;2024-02-14T03:18:51;9.90;99.90
23156;DHT22;11746;50.876;4.246;2024-02-14T03:21:17;10.00;99.90
23156;DHT22;11746;50.876;4.246;2024-02-14T03:23:45;9.90;99.90
23156;DHT22;11746;50.876;4.246;2024-02-14T03:26:11;9.90;99.90
23156;DHT22;11746;50.876;4.246;2024-02-14T03:28:39;10.00;99.90
23156;DHT22;11746;50.876;4.246;2024-02-14T03:31:07;10.00;99.90
23156;DHT22;11746;50.876;4.246;2024-02-14T03:33:34;10.00;99.90
23156;DHT22;11746;50.876;4.246;2024-02-14T03:36:03;10.00;99.90
23156;DHT22;11746;50.876;4.246;2024-02-14T03:38:33;10.00;99.90
23156;DHT22;11746;50.876;4.246;2024-02-14T03:40:59;10.10;99.90
23156;DHT22;11746;50.876;4.246;2024-02-14T03:43:24;10.00;99.90
23156;DHT22;11746;50.876;4.246;2024-02-14T03:45:50;10.00;99.90
23156;DHT22;11746;50.876;4.246;2024-02-14T03:48:17;10.00;99.90
23156;DHT22;11746;50.876;4.246;2024-02-14T03:50:43;9.90;99.90
23156;DHT22;11746;50.876;4.246;2024-02-14T03:53:08;9.90;99.90
23156;DHT22;11746;50.876;4.246;2024-02-14T03:55:37;9.90;99.90
23156;DHT22;11746;50.876;4.246;2024-02-14T03:58:05;9.90;99.90
23156;DHT22;11746;50.876;4.246;2024-02-14T04:00:34;9.90;99.90
23156;DHT22;11746;50.876;4.246;2024-02-14T04:03:01;9.90;99.90
23156;DHT22;11746;50.876;4.246;2024-02-14T04:05:30;9.90;99.90
23156;DHT22;11746;50.876;4.246;2024-02-14T04:07:56;9.90;99.90
23156;DHT22;11746;50.876;4.246;2024-02-14T04:10:24;9.90;99.90
23156;DHT22;11746;50.876;4.246;2024-02-14T04:12:50;9.90;99.90
23156;DHT22;11746;50.876;4.246;2024-02-14T04:15:15;9.90;99.90
23156;DHT22;11746;50.876;4.246;2024-02-14T04:17:43;9.90;99.90
23156;DHT22;11746;50.876;4.246;2024-02-14T04:20:09;9.90;99.90
23156;DHT22;11746;50.876;4.246;2024-02-14T04:22:37;9.90;99.90
23156;DHT22;11746;50.876;4.246;2024-02-14T04:25:03;9.80;99.90
23156;DHT22;11746;50.876;4.246;2024-02-14T04:27:31;10.00;99.90
23156;DHT22;11746;50.876;4.246;2024-02-14T04:30:00;10.00;99.90
23156;DHT22;11746;50.876;4.246;2024-02-14T04:32:29;10.00;99.90
23156;DHT22;11746;50.876;4.246;2024-02-14T04:34:58;9.90;99.90
23156;DHT22;11746;50.876;4.246;2024-02-14T04:37:28;10.00;99.90
23156;DHT22;11746;50.876;4.246;2024-02-14T04:40:01;9.90;99.90
23156;DHT22;11746;50.876;4.246;2024-02-14T04:42:29;10.00;99.90
23156;DHT22;11746;50.876;4.246;2024-02-14T04:44:55;10.10;99.90
23156;DHT22;11746;50.876;4.246;2024-02-14T04:47:23;10.10;99.90
23156;DHT22;11746;50.876;4.246;2024-02-14T04:49:51;10.10;99.90
23156;DHT22;11746;50.876;4.246;2024-02-14T04:52:21;10.10;99.90
23156;DHT22;11746;50.876;4.246;2024-02-14T04:54:51;10.10;99.90
23156;DHT22;11746;50.876;4.246;2024-02-14T04:57:17;10.10;99.90
23156;DHT22;11746;50.876;4.246;2024-02-14T04:59:46;10.10;99.90
23156;DHT22;11746;50.876;4.246;2024-02-14T05:02:12;10.10;99.90
23156;DHT22;11746;50.876;4.246;2024-02-14T05:04:38;10.10;99.90
23156;DHT22;11746;50.876;4.246;2024-02-14T05:07:06;10.10;99.90
23156;DHT22;11746;50.876;4.246;2024-02-14T05:09:32;10.00;99.90
23156;DHT22;11746;50.876;4.246;2024-02-14T05:11:57;10.00;99.90
23156;DHT22;11746;50.876;4.246;2024-02-14T05:14:23;10.00;99.90
23156;DHT22;11746;50.876;4.246;2024-02-14T05:16:49;10.10;99.90
23156;DHT22;11746;50.876;4.246;2024-02-14T05:19:15;10.10;99.90
23156;DHT22;11746;50.876;4.246;2024-02-14T05:21:45;10.10;99.90
23156;DHT22;11746;50.876;4.246;2024-02-14T05:24:11;10.10;99.90
23156;DHT22;11746;50.876;4.246;2024-02-14T05:26:39;10.20;99.90
23156;DHT22;11746;50.876;4.246;2024-02-14T05:29:04;10.20;99.90
23156;DHT22;11746;50.876;4.246;2024-02-14T05:31:43;10.10;99.90
23156;DHT22;11746;50.876;4.246;2024-02-14T05:34:09;10.20;99.90
23156;DHT22;11746;50.876;4.246;2024-02-14T05:36:35;10.30;99.90
23156;DHT22;11746;50.876;4.246;2024-02-14T05:39:03;10.20;99.90
23156;DHT22;11746;50.876;4.246;2024-02-14T05:41:31;10.20;99.90
23156;DHT22;11746;50.876;4.246;2024-02-14T05:44:03;10.20;99.90
23156;DHT22;11746;50.876;4.246;2024-02-14T05:46:31;10.20;99.90
23156;DHT22;11746;50.876;4.246;2024-02-14T05:48:59;10.20;99.90
23156;DHT22;11746;50.876;4.246;2024-02-14T05:51:25;10.30;99.90
23156;DHT22;11746;50.876;4.246;2024-02-14T05:53:51;10.30;99.90
23156;DHT22;11746;50.876;4.246;2024-02-14T05:56:18;10.30;99.90
23156;DHT22;11746;50.876;4.246;2024-02-14T05:58:46;10.30;99.90
23156;DHT22;11746;50.876;4.246;2024-02-14T06:01:12;10.30;99.90
23156;DHT22;11746;50.876;4.246;2024-02-14T06:03:38;10.40;99.90
23156;DHT22;11746;50.876;4.246;2024-02-14T06:06:06;10.40;99.90
23156;DHT22;11746;50.876;4.246;2024-02-14T06:08:34;10.40;99.90
23156;DHT22;11746;50.876;4.246;2024-02-14T06:11:02;10.40;99.90
23156;DHT22;11746;50.876;4.246;2024-02-14T06:13:28;10.50;99.90
23156;DHT22;11746;50.876;4.246;2024-02-14T06:15:53;10.50;99.90
23156;DHT22;11746;50.876;4.246;2024-02-14T06:18:21;10.50;99.90
23156;DHT22;11746;50.876;4.246;2024-02-14T06:20:47;10.50;99.90
23156;DHT22;11746;50.876;4.246;2024-02-14T06:23:13;10.60;99.90
23156;DHT22;11746;50.876;4.246;2024-02-14T06:25:41;10.50;99.90
23156;DHT22;11746;50.876;4.246;2024-02-14T06:28:09;10.50;99.90
23156;DHT22;11746;50.876;4.246;2024-02-14T06:30:39;10.60;99.90
23156;DHT22;11746;50.876;4.246;2024-02-14T06:33:05;10.60;99.90
23156;DHT22;11746;50.876;4.246;2024-02-14T06:35:33;10.60;99.90
23156;DHT22;11746;50.876;4.246;2024-02-14T06:37:58;10.70;99.90
23156;DHT22;11746;50.876;4.246;2024-02-14T06:40:28;10.70;99.90
23156;DHT22;11746;50.876;4.246;2024-02-14T06:42:57;10.70;99.90
23156;DHT22;11746;50.876;4.246;2024-02-14T06:45:23;10.70;99.90
23156;DHT22;11746;50.876;4.246;2024-02-14T06:47:49;10.70;99.90
23156;DHT22;11746;50.876;4.246;2024-02-14T06:50:14;10.70;99.90
23156;DHT22;11746;50.876;4.246;2024-02-14T06:52:42;10.80;99.90
23156;DHT22;11746;50.876;4.246;2024-02-14T06:55:13;10.80;99.90
23156;DHT22;11746;50.876;4.246;2024-02-14T06:57:38;10.80;99.90
23156;DHT22;11746;50.876;4.246;2024-02-14T07:00:04;10.80;99.90
23156;DHT22;11746;50.876;4.246;2024-02-14T07:02:32;10.80;99.90
23156;DHT22;11746;50.876;4.246;2024-02-14T07:05:02;10.80;99.90
23156;DHT22;11746;50.876;4.246;2024-02-14T07:07:28;10.90;99.90
23156;DHT22;11746;50.876;4.246;2024-02-14T07:09:53;10.90;99.90
23156;DHT22;11746;50.876;4.246;2024-02-14T07:12:21;10.90;99.90
23156;DHT22;11746;50.876;4.246;2024-02-14T07:14:49;10.80;99.90
23156;DHT22;11746;50.876;4.246;2024-02-14T07:17:15;10.80;99.90
23156;DHT22;11746;50.876;4.246;2024-02-14T07:19:43;10.80;99.90
23156;DHT22;11746;50.876;4.246;2024-02-14T07:22:15;10.80;99.90
23156;DHT22;11746;50.876;4.246;2024-02-14T07:24:41;10.80;99.90
23156;DHT22;11746;50.876;4.246;2024-02-14T07:27:12;10.90;99.90
23156;DHT22;11746;50.876;4.246;2024-02-14T07:29:37;11.00;99.90
23156;DHT22;11746;50.876;4.246;2024-02-14T07:32:03;11.00;99.90
23156;DHT22;11746;50.876;4.246;2024-02-14T07:34:29;11.00;99.90
23156;DHT22;11746;50.876;4.246;2024-02-14T07:36:54;10.90;99.90
23156;DHT22;11746;50.876;4.246;2024-02-14T07:39:22;10.90;99.90
23156;DHT22;11746;50.876;4.246;2024-02-14T07:41:48;10.90;99.90
23156;DHT22;11746;50.876;4.246;2024-02-14T07:44:14;10.90;99.90
23156;DHT22;11746;50.876;4.246;2024-02-14T07:46:44;11.00;99.90
23156;DHT22;11746;50.876;4.246;2024-02-14T07:49:13;11.00;99.90
23156;DHT22;11746;50.876;4.246;2024-02-14T07:51:38;11.00;99.90
23156;DHT22;11746;50.876;4.246;2024-02-14T07:54:08;11.10;99.90
23156;DHT22;11746;50.876;4.246;2024-02-14T07:56:36;11.00;99.90
23156;DHT22;11746;50.876;4.246;2024-02-14T07:59:04;11.10;99.90
23156;DHT22;11746;50.876;4.246;2024-02-14T08:01:31;11.10;99.90
23156;DHT22;11746;50.876;4.246;2024-02-14T08:03:59;11.10;99.90
23156;DHT22;11746;50.876;4.246;2024-02-14T08:06:27;11.00;99.90
23156;DHT22;11746;50.876;4.246;2024-02-14T08:08:54;11.00;99.90
23156;DHT22;11746;50.876;4.246;2024-02-14T08:11:26;11.00;99.90
23156;DHT22;11746;50.876;4.246;2024-02-14T08:13:57;10.90;99.90
23156;DHT22;11746;50.876;4.246;2024-02-14T08:16:23;11.00;99.90
23156;DHT22;11746;50.876;4.246;2024-02-14T08:18:51;11.00;99.90
23156;DHT22;11746;50.876;4.246;2024-02-14T08:21:28;11.00;99.90
23156;DHT22;11746;50.876;4.246;2024-02-14T08:23:54;11.00;99.90
23156;DHT22;11746;50.876;4.246;2024-02-14T08:26:21;11.00;99.90
23156;DHT22;11746;50.876;4.246;2024-02-14T08:28:50;11.00;99.90
23156;DHT22;11746;50.876;4.246;2024-02-14T08:31:23;11.10;99.90
23156;DHT22;11746;50.876;4.246;2024-02-14T08:33:49;11.10;99.90
23156;DHT22;11746;50.876;4.246;2024-02-14T08:36:17;11.10;99.90
23156;DHT22;11746;50.876;4.246;2024-02-14T08:38:44;11.20;99.90
23156;DHT22;11746;50.876;4.246;2024-02-14T08:41:09;11.20;99.90
23156;DHT22;11746;50.876;4.246;2024-02-14T08:43:37;11.20;99.90
23156;DHT22;11746;50.876;4.246;2024-02-14T08:46:12;11.20;99.90
23156;DHT22;11746;50.876;4.246;2024-02-14T08:48:37;11.20;99.90
23156;DHT22;11746;50.876;4.246;2024-02-14T08:51:07;11.10;99.90
23156;DHT22;11746;50.876;4.246;2024-02-14T08:53:35;11.10;99.90
23156;DHT22;11746;50.876;4.246;2024-02-14T08:56:03;11.10;99.90
23156;DHT22;11746;50.876;4.246;2024-02-14T08:58:29;11.20;99.90
23156;DHT22;11746;50.876;4.246;2024-02-14T09:00:55;11.30;99.90
23156;DHT22;11746;50.876;4.246;2024-02-14T09:03:20;11.30;99.90
23156;DHT22;11746;50.876;4.246;2024-02-14T09:05:48;11.30;99.90
23156;DHT22;11746;50.876;4.246;2024-02-14T09:08:14;11.40;99.90
23156;DHT22;11746;50.876;4.246;2024-02-14T09:10:40;11.40;99.90
23156;DHT22;11746;50.876;4.246;2024-02-14T09:13:05;11.40;99.90
23156;DHT22;11746;50.876;4.246;2024-02-14T09:15:34;11.40;99.90
23156;DHT22;11746;50.876;4.246;2024-02-14T09:18:00;11.40;99.90
23156;DHT22;11746;50.876;4.246;2024-02-14T09:20:26;11.50;99.90
23156;DHT22;11746;50.876;4.246;2024-02-14T09:22:52;11.70;99.90
23156;DHT22;11746;50.876;4.246;2024-02-14T09:25:19;11.60;99.90
23156;DHT22;11746;50.876;4.246;2024-02-14T09:27:49;11.60;99.90
23156;DHT22;11746;50.876;4.246;2024-02-14T09:30:14;11.50;99.90
23156;DHT22;11746;50.876;4.246;2024-02-14T09:32:45;11.50;99.90
23156;DHT22;11746;50.876;4.246;2024-02-14T09:35:13;11.40;99.90
23156;DHT22;11746;50.876;4.246;2024-02-14T09:37:38;11.30;99.90
23156;DHT22;11746;50.876;4.246;2024-02-14T09:40:05;11.40;99.90
23156;DHT22;11746;50.876;4.246;2024-02-14T09:43:01;11.40;99.90
23156;DHT22;11746;50.876;4.246;2024-02-14T09:45:33;11.40;99.90
23156;DHT22;11746;50.876;4.246;2024-02-14T09:47:59;11.40;99.90
23156;DHT22;11746;50.876;4.246;2024-02-14T09:50:31;11.40;99.90
23156;DHT22;11746;50.876;4.246;2024-02-14T09:52:57;11.40;99.90
23156;DHT22;11746;50.876;4.246;2024-02-14T09:55:27;11.50;99.90
23156;DHT22;11746;50.876;4.246;2024-02-14T09:57:55;11.50;99.90
23156;DHT22;11746;50.876;4.246;2024-02-14T10:00:23;11.50;99.90
23156;DHT22;11746;50.876;4.246;2024-02-14T10:02:49;11.40;99.90
23156;DHT22;11746;50.876;4.246;2024-02-14T10:05:17;11.50;99.90
23156;DHT22;11746;50.876;4.246;2024-02-14T10:07:44;11.50;99.90
23156;DHT22;11746;50.876;4.246;2024-02-14T10:10:10;11.50;99.90
23156;DHT22;11746;50.876;4.246;2024-02-14T10:12:36;11.50;99.90
23156;DHT22;11746;50.876;4.246;2024-02-14T10:15:02;11.50;99.90
23156;DHT22;11746;50.876;4.246;2024-02-14T10:17:35;11.50;99.90
23156;DHT22;11746;50.876;4.246;2024-02-14T10:20:02;11.50;99.90
23156;DHT22;11746;50.876;4.246;2024-02-14T10:22:39;11.50;99.90
23156;DHT22;11746;50.876;4.246;2024-02-14T10:25:06;11.40;99.90
23156;DHT22;11746;50.876;4.246;2024-02-14T10:27:38;11.50;99.90
23156;DHT22;11746;50.876;4.246;2024-02-14T10:30:08;11.50;99.90
23156;DHT22;11746;50.876;4.246;2024-02-14T10:32:44;11.50;99.90
23156;DHT22;11746;50.876;4.246;2024-02-14T10:35:13;11.60;99.90
23156;DHT22;11746;50.876;4.246;2024-02-14T10:37:39;11.60;99.90
23156;DHT22;11746;50.876;4.246;2024-02-14T10:40:08;11.70;99.90
23156;DHT22;11746;50.876;4.246;2024-02-14T10:42:34;11.70;99.90
23156;DHT22;11746;50.876;4.246;2024-02-14T10:45:05;11.70;99.90
23156;DHT22;11746;50.876;4.246;2024-02-14T10:47:34;11.60;99.90
23156;DHT22;11746;50.876;4.246;2024-02-14T10:50:03;11.60;99.90
23156;DHT22;11746;50.876;4.246;2024-02-14T10:52:35;11.60;99.90
23156;DHT22;11746;50.876;4.246;2024-02-14T10:55:05;11.60;99.90
23156;DHT22;11746;50.876;4.246;2024-02-14T10:57:31;11.60;99.90
23156;DHT22;11746;50.876;4.246;2024-02-14T11:00:03;11.60;99.90
23156;DHT22;11746;50.876;4.246;2024-02-14T11:02:30;11.60;99.90
23156;DHT22;11746;50.876;4.246;2024-02-14T11:04:58;11.60;99.90
23156;DHT22;11746;50.876;4.246;2024-02-14T11:07:26;11.70;99.90
23156;DHT22;11746;50.876;4.246;2024-02-14T11:10:05;11.70;99.90
23156;DHT22;11746;50.876;4.246;2024-02-14T11:12:36;11.70;99.90
23156;DHT22;11746;50.876;4.246;2024-02-14T11:17:46;11.70;99.90
23156;DHT22;11746;50.876;4.246;2024-02-14T11:20:16;11.60;99.90
23156;DHT22;11746;50.876;4.246;2024-02-14T11:22:57;11.70;99.90
23156;DHT22;11746;50.876;4.246;2024-02-14T11:25:33;11.70;99.90
23156;DHT22;11746;50.876;4.246;2024-02-14T11:28:28;11.80;99.90
23156;DHT22;11746;50.876;4.246;2024-02-14T11:31:01;11.80;99.90
23156;DHT22;11746;50.876;4.246;2024-02-14T11:33:31;11.80;99.90
23156;DHT22;11746;50.876;4.246;2024-02-14T11:35:57;11.70;99.90
23156;DHT22;11746;50.876;4.246;2024-02-14T11:38:24;11.80;99.90
23156;DHT22;11746;50.876;4.246;2024-02-14T11:40:57;11.90;99.90
23156;DHT22;11746;50.876;4.246;2024-02-14T11:43:23;11.80;99.90
23156;DHT22;11746;50.876;4.246;2024-02-14T11:45:49;11.80;99.90
23156;DHT22;11746;50.876;4.246;2024-02-14T11:48:21;11.80;99.90
23156;DHT22;11746;50.876;4.246;2024-02-14T11:50:53;11.80;99.90
23156;DHT22;11746;50.876;4.246;2024-02-14T11:53:19;11.80;99.90
23156;DHT22;11746;50.876;4.246;2024-02-14T11:55:46;11.90;99.90
23156;DHT22;11746;50.876;4.246;2024-02-14T11:58:17;12.00;99.90
23156;DHT22;11746;50.876;4.246;2024-02-14T12:00:44;12.00;99.90
23156;DHT22;11746;50.876;4.246;2024-02-14T12:03:18;12.10;99.90
23156;DHT22;11746;50.876;4.246;2024-02-14T12:05:54;12.10;99.90
23156;DHT22;11746;50.876;4.246;2024-02-14T12:08:22;12.10;99.90
23156;DHT22;11746;50.876;4.246;2024-02-14T12:10:51;12.20;99.90
23156;DHT22;11746;50.876;4.246;2024-02-14T12:13:22;12.20;99.90
23156;DHT22;11746;50.876;4.246;2024-02-14T12:15:50;12.20;99.90
23156;DHT22;11746;50.876;4.246;2024-02-14T12:18:20;12.20;99.90
23156;DHT22;11746;50.876;4.246;2024-02-14T12:20:46;12.20;99.90
23156;DHT22;11746;50.876;4.246;2024-02-14T12:23:16;12.30;99.90
23156;DHT22;11746;50.876;4.246;2024-02-14T12:25:47;12.30;99.90
23156;DHT22;11746;50.876;4.246;2024-02-14T12:28:17;12.30;99.90
23156;DHT22;11746;50.876;4.246;2024-02-14T12:30:47;12.30;99.90
23156;DHT22;11746;50.876;4.246;2024-02-14T12:33:21;12.30;99.90
23156;DHT22;11746;50.876;4.246;2024-02-14T12:35:48;12.30;99.90
23156;DHT22;11746;50.876;4.246;2024-02-14T12:38:15;12.40;99.90
23156;DHT22;11746;50.876;4.246;2024-02-14T12:40:41;12.40;99.90
23156;DHT22;11746;50.876;4.246;2024-02-14T12:43:08;12.40;99.90
23156;DHT22;11746;50.876;4.246;2024-02-14T12:45:34;12.40;99.90
23156;DHT22;11746;50.876;4.246;2024-02-14T12:48:00;12.40;99.90
23156;DHT22;11746;50.876;4.246;2024-02-14T12:50:26;12.40;99.90
23156;DHT22;11746;50.876;4.246;2024-02-14T12:52:54;12.40;99.90
23156;DHT22;11746;50.876;4.246;2024-02-14T12:55:21;12.40;99.90
23156;DHT22;11746;50.876;4.246;2024-02-14T12:57:53;12.40;99.90
23156;DHT22;11746;50.876;4.246;2024-02-14T13:00:21;12.40;99.90
23156;DHT22;11746;50.876;4.246;2024-02-14T13:02:53;12.40;99.90
23156;DHT22;11746;50.876;4.246;2024-02-14T13:05:20;12.40;99.90
23156;DHT22;11746;50.876;4.246;2024-02-14T13:07:48;12.40;99.90
23156;DHT22;11746;50.876;4.246;2024-02-14T13:10:15;12.40;99.90
23156;DHT22;11746;50.876;4.246;2024-02-14T13:12:43;12.40;99.90
23156;DHT22;11746;50.876;4.246;2024-02-14T13:15:10;12.50;99.90
23156;DHT22;11746;50.876;4.246;2024-02-14T13:17:37;12.50;99.90
23156;DHT22;11746;50.876;4.246;2024-02-14T13:20:05;12.50;99.90
23156;DHT22;11746;50.876;4.246;2024-02-14T13:22:33;12.50;99.90
23156;DHT22;11746;50.876;4.246;2024-02-14T13:24:59;12.50;99.90
23156;DHT22;11746;50.876;4.246;2024-02-14T13:27:28;12.50;99.90
23156;DHT22;11746;50.876;4.246;2024-02-14T13:29:54;12.50;99.90
23156;DHT22;11746;50.876;4.246;2024-02-14T13:32:21;12.50;99.90
23156;DHT22;11746;50.876;4.246;2024-02-14T13:34:47;12.40;99.90
23156;DHT22;11746;50.876;4.246;2024-02-14T13:37:13;12.40;99.90
23156;DHT22;11746;50.876;4.246;2024-02-14T13:39:42;12.40;99.90
23156;DHT22;11746;50.876;4.246;2024-02-14T13:42:11;12.40;99.90
23156;DHT22;11746;50.876;4.246;2024-02-14T13:44:39;12.40;99.90
23156;DHT22;11746;50.876;4.246;2024-02-14T13:47:05;12.40;99.90
23156;DHT22;11746;50.876;4.246;2024-02-14T13:49:30;12.40;99.90
23156;DHT22;11746;50.876;4.246;2024-02-14T13:51:58;12.50;99.90
23156;DHT22;11746;50.876;4.246;2024-02-14T13:54:24;12.50;99.90
23156;DHT22;11746;50.876;4.246;2024-02-14T13:56:50;12.50;99.90
23156;DHT22;11746;50.876;4.246;2024-02-14T13:59:19;12.50;99.90
23156;DHT22;11746;50.876;4.246;2024-02-14T14:01:45;12.50;99.90
23156;DHT22;11746;50.876;4.246;2024-02-14T14:04:14;12.50;99.90
23156;DHT22;11746;50.876;4.246;2024-02-14T14:06:42;12.50;99.90
23156;DHT22;11746;50.876;4.246;2024-02-14T14:09:07;12.50;99.90
23156;DHT22;11746;50.876;4.246;2024-02-14T14:11:38;12.60;99.90
23156;DHT22;11746;50.876;4.246;2024-02-14T14:14:05;12.60;99.90
23156;DHT22;11746;50.876;4.246;2024-02-14T14:16:33;12.60;99.90
23156;DHT22;11746;50.876;4.246;2024-02-14T14:19:01;12.70;99.90
23156;DHT22;11746;50.876;4.246;2024-02-14T14:21:30;12.60;99.90
23156;DHT22;11746;50.876;4.246;2024-02-14T14:23:57;12.70;99.90
23156;DHT22;11746;50.876;4.246;2024-02-14T14:26:23;12.70;99.90
23156;DHT22;11746;50.876;4.246;2024-02-14T14:28:53;12.70;99.90
23156;DHT22;11746;50.876;4.246;2024-02-14T14:31:22;12.70;99.90
23156;DHT22;11746;50.876;4.246;2024-02-14T14:33:50;12.70;99.90
23156;DHT22;11746;50.876;4.246;2024-02-14T14:36:21;12.70;99.90
23156;DHT22;11746;50.876;4.246;2024-02-14T14:38:49;12.80;99.90
23156;DHT22;11746;50.876;4.246;2024-02-14T14:41:17;12.80;99.90
23156;DHT22;11746;50.876;4.246;2024-02-14T14:43:48;12.70;99.90
23156;DHT22;11746;50.876;4.246;2024-02-14T14:46:15;12.80;99.90
23156;DHT22;11746;50.876;4.246;2024-02-14T14:48:43;12.80;99.90
23156;DHT22;11746;50.876;4.246;2024-02-14T14:51:11;12.80;99.90
23156;DHT22;11746;50.876;4.246;2024-02-14T14:53:39;12.90;99.90
23156;DHT22;11746;50.876;4.246;2024-02-14T14:56:05;12.90;99.90
23156;DHT22;11746;50.876;4.246;2024-02-14T14:58:31;12.90;99.90
23156;DHT22;11746;50.876;4.246;2024-02-14T15:00:59;12.90;99.90
23156;DHT22;11746;50.876;4.246;2024-02-14T15:03:28;12.80;99.90
23156;DHT22;11746;50.876;4.246;2024-02-14T15:05:56;12.90;99.90
23156;DHT22;11746;50.876;4.246;2024-02-14T15:08:22;12.80;99.90
23156;DHT22;11746;50.876;4.246;2024-02-14T15:10:57;12.80;99.90
23156;DHT22;11746;50.876;4.246;2024-02-14T15:13:23;12.80;99.90
23156;DHT22;11746;50.876;4.246;2024-02-14T15:15:55;12.80;99.90
23156;DHT22;11746;50.876;4.246;2024-02-14T15:18:20;12.90;99.90
23156;DHT22;11746;50.876;4.246;2024-02-14T15:20:46;12.80;99.90
23156;DHT22;11746;50.876;4.246;2024-02-14T15:23:12;12.90;99.90
23156;DHT22;11746;50.876;4.246;2024-02-14T15:25:37;12.90;99.90
23156;DHT22;11746;50.876;4.246;2024-02-14T15:28:10;12.90;99.90
23156;DHT22;11746;50.876;4.246;2024-02-14T15:30:47;13.00;99.90
23156;DHT22;11746;50.876;4.246;2024-02-14T15:33:31;13.00;99.90
23156;DHT22;11746;50.876;4.246;2024-02-14T15:35:57;13.00;99.90
23156;DHT22;11746;50.876;4.246;2024-02-14T15:38:24;13.00;99.90
23156;DHT22;11746;50.876;4.246;2024-02-14T15:40:52;13.00;99.90
23156;DHT22;11746;50.876;4.246;2024-02-14T15:43:27;12.90;99.90